Time,TemperatureF,DewpointF,PressureIn,WindDirection,WindDirectionDegrees,WindSpeedMPH,WindSpeedGustMPH,Humidity,HourlyPrecipIn,Conditions,Clouds,dailyrainin,SoftwareType,DateUTC
2013-03-22 00:11:00,67.8,45.1,29.54,West,270,9.9,-999.0,44,-99.99,,,0.00,Acu-Link.com,2013-03-22 07:11:00,
2013-03-22 00:26:00,68.7,44.0,29.54,WSW,247,10.9,-999.0,41,-99.99,,,0.00,Acu-Link.com,2013-03-22 07:26:00,
2013-03-22 00:41:00,65.5,46.4,29.54,SSE,157,17.1,-999.0,50,-99.99,,,0.00,Acu-Link.com,2013-03-22 07:41:00,
2013-03-22 00:56:00,65.1,47.0,29.54,NW,315,10.9,-999.0,52,-99.99,,,0.00,Acu-Link.com,2013-03-22 07:56:00,
2013-03-22 01:12:00,64.8,47.3,29.54,WNW,292,13.5,-999.0,53,-99.99,,,0.00,Acu-Link.com,2013-03-22 08:12:00,
2013-03-22 01:27:00,64.8,47.3,29.54,SW,225,14.5,-999.0,53,-99.99,,,0.00,Acu-Link.com,2013-03-22 08:27:00,
2013-03-22 01:42:00,65.1,46.0,29.55,WNW,292,10.4,-999.0,50,-99.99,,,0.00,Acu-Link.com,2013-03-22 08:42:00,
2013-03-22 01:57:00,64.6,46.1,29.56,WNW,292,13.0,-999.0,51,-99.99,,,0.00,Acu-Link.com,2013-03-22 08:57:00,
2013-03-22 02:12:00,64.4,46.4,29.55,West,270,12.5,-999.0,52,-99.99,,,0.00,Acu-Link.com,2013-03-22 09:12:00,
2013-03-22 02:27:00,64.0,46.0,29.55,West,270,14.5,-999.0,52,-99.99,,,0.01,Acu-Link.com,2013-03-22 09:27:00,
2013-03-22 02:42:00,64.2,45.7,29.55,West,270,18.1,-999.0,51,-99.99,,,0.01,Acu-Link.com,2013-03-22 09:42:00,
2013-03-22 02:57:00,64.2,45.2,29.55,WNW,292,19.7,-999.0,50,-99.99,,,0.01,Acu-Link.com,2013-03-22 09:57:00,
2013-03-22 03:12:00,64.0,45.0,29.54,West,270,11.9,-999.0,50,-99.99,,,0.01,Acu-Link.com,2013-03-22 10:12:00,
2013-03-22 03:27:00,63.7,44.7,29.54,WNW,292,13.5,-999.0,50,-99.99,,,0.01,Acu-Link.com,2013-03-22 10:27:00,
2013-03-22 03:42:00,63.3,44.3,29.55,West,270,7.8,-999.0,50,-99.99,,,0.01,Acu-Link.com,2013-03-22 10:42:00,
2013-03-22 03:57:00,63.0,45.1,29.55,West,270,10.9,-999.0,52,-99.99,,,0.01,Acu-Link.com,2013-03-22 10:57:00,
2013-03-22 04:12:00,63.0,44.6,29.56,NW,315,16.1,-999.0,51,-99.99,,,0.01,Acu-Link.com,2013-03-22 11:12:00,
2013-03-22 04:27:00,62.6,44.2,29.56,WNW,292,11.9,-999.0,51,-99.99,,,0.01,Acu-Link.com,2013-03-22 11:27:00,
2013-03-22 04:43:00,62.4,44.0,29.57,West,270,7.3,-999.0,51,-99.99,,,0.01,Acu-Link.com,2013-03-22 11:43:00,
2013-03-22 04:58:00,61.7,43.9,29.57,NW,315,9.9,-999.0,52,-99.99,,,0.01,Acu-Link.com,2013-03-22 11:58:00,
2013-03-22 05:13:00,61.3,44.0,29.57,NE,45,7.3,-999.0,53,-99.99,,,0.01,Acu-Link.com,2013-03-22 12:13:00,
2013-03-22 05:28:00,60.6,44.3,29.58,West,270,9.4,-999.0,55,-99.99,,,0.01,Acu-Link.com,2013-03-22 12:28:00,
2013-03-22 05:43:00,60.4,44.2,29.58,West,270,11.9,-999.0,55,-99.99,,,0.01,Acu-Link.com,2013-03-22 12:43:00,
2013-03-22 05:58:00,59.9,44.2,29.59,West,270,10.4,-999.0,56,-99.99,,,0.01,Acu-Link.com,2013-03-22 12:58:00,
2013-03-22 06:13:00,59.7,44.0,29.60,West,270,9.4,-999.0,56,-99.99,,,0.01,Acu-Link.com,2013-03-22 13:13:00,
2013-03-22 06:28:00,59.0,43.8,29.60,West,270,9.9,-999.0,57,-99.99,,,0.01,Acu-Link.com,2013-03-22 13:28:00,
2013-03-22 06:43:00,58.6,43.4,29.62,West,270,14.0,-999.0,57,-99.99,,,0.01,Acu-Link.com,2013-03-22 13:43:00,
2013-03-22 06:59:00,58.3,43.6,29.62,West,270,9.9,-999.0,58,-99.99,,,0.01,Acu-Link.com,2013-03-22 13:59:00,
2013-03-22 07:14:00,58.6,43.4,29.63,NW,315,10.4,-999.0,57,-99.99,,,0.01,Acu-Link.com,2013-03-22 14:14:00,
2013-03-22 07:29:00,59.0,43.3,29.64,NNW,337,8.3,-999.0,56,-99.99,,,0.01,Acu-Link.com,2013-03-22 14:29:00,
2013-03-22 07:44:00,59.7,43.0,29.65,NW,315,5.8,-999.0,54,-99.99,,,0.01,Acu-Link.com,2013-03-22 14:44:00,
2013-03-22 07:59:00,61.0,43.2,29.65,West,270,9.4,-999.0,52,-99.99,,,0.01,Acu-Link.com,2013-03-22 14:59:00,
2013-03-22 08:14:00,61.9,43.6,29.65,NW,315,9.4,-999.0,51,-99.99,,,0.01,Acu-Link.com,2013-03-22 15:14:00,
2013-03-22 08:29:00,63.0,43.5,29.67,SW,225,6.3,-999.0,49,-99.99,,,0.01,Acu-Link.com,2013-03-22 15:29:00,
2013-03-22 08:44:00,63.1,43.6,29.66,NNW,337,6.3,-999.0,49,-99.99,,,0.01,Acu-Link.com,2013-03-22 15:44:00,
2013-03-22 08:59:00,64.9,43.0,29.67,West,270,6.8,-999.0,45,-99.99,,,0.01,Acu-Link.com,2013-03-22 15:59:00,
2013-03-22 09:15:00,66.7,42.2,29.67,West,270,4.7,-999.0,41,-99.99,,,0.01,Acu-Link.com,2013-03-22 16:15:00,
2013-03-22 09:30:00,68.7,42.1,29.68,NNE,22,3.7,-999.0,38,-99.99,,,0.01,Acu-Link.com,2013-03-22 16:30:00,
2013-03-22 09:45:00,70.5,39.2,29.68,NW,315,4.2,-999.0,32,-99.99,,,0.01,Acu-Link.com,2013-03-22 16:45:00,
2013-03-22 10:00:00,71.8,41.1,29.68,WSW,247,4.7,-999.0,33,-99.99,,,0.01,Acu-Link.com,2013-03-22 17:00:00,
2013-03-22 10:15:00,72.1,42.2,29.68,NW,315,4.7,-999.0,34,-99.99,,,0.01,Acu-Link.com,2013-03-22 17:15:00,
2013-03-22 10:30:00,75.2,37.9,29.68,West,270,3.7,-999.0,26,-99.99,,,0.01,Acu-Link.com,2013-03-22 17:30:00,
2013-03-22 10:46:00,77.0,32.8,29.68,WSW,247,4.7,-999.0,20,-99.99,,,0.01,Acu-Link.com,2013-03-22 17:46:00,
2013-03-22 11:01:00,78.4,26.9,29.68,West,270,2.2,-999.0,15,-99.99,,,0.01,Acu-Link.com,2013-03-22 18:01:00,
2013-03-22 11:16:00,79.9,24.7,29.66,West,270,8.3,-999.0,13,-99.99,,,0.01,Acu-Link.com,2013-03-22 18:16:00,
2013-03-22 11:31:00,82.6,22.8,29.66,WNW,292,2.7,-999.0,11,-99.99,,,0.01,Acu-Link.com,2013-03-22 18:31:00,
2013-03-22 11:46:00,81.7,19.8,29.66,SW,225,2.7,-999.0,10,-99.99,,,0.01,Acu-Link.com,2013-03-22 18:46:00,
2013-03-22 12:02:00,85.5,20.2,29.65,SSE,157,1.7,-999.0,9,-99.99,,,0.01,Acu-Link.com,2013-03-22 19:02:00,
2013-03-22 12:17:00,82.9,9.1,29.65,WSW,247,1.7,-999.0,6,-99.99,,,0.01,Acu-Link.com,2013-03-22 19:17:00,
2013-03-22 12:32:00,86.7,11.8,29.64,NE,45,3.7,-999.0,6,-99.99,,,0.01,Acu-Link.com,2013-03-22 19:32:00,
2013-03-22 12:48:00,86.9,15.4,29.65,West,270,2.7,-999.0,7,-99.99,,,0.01,Acu-Link.com,2013-03-22 19:48:00,
2013-03-22 13:03:00,87.3,12.2,29.63,SSE,157,3.2,-999.0,6,-99.99,,,0.01,Acu-Link.com,2013-03-22 20:03:00,
2013-03-22 13:18:00,88.7,9.1,29.63,NNW,337,3.7,-999.0,5,-99.99,,,0.01,Acu-Link.com,2013-03-22 20:18:00,
2013-03-22 13:33:00,88.2,16.4,29.62,SSW,202,3.7,-999.0,7,-99.99,,,0.01,Acu-Link.com,2013-03-22 20:33:00,
2013-03-22 13:48:00,88.3,12.9,29.62,South,180,2.2,-999.0,6,-99.99,,,0.01,Acu-Link.com,2013-03-22 20:48:00,
2013-03-22 14:04:00,88.2,12.9,29.61,SSW,202,3.2,-999.0,6,-99.99,,,0.01,Acu-Link.com,2013-03-22 21:04:00,
2013-03-22 14:19:00,88.2,12.9,29.60,NNW,337,2.7,-999.0,6,-99.99,,,0.01,Acu-Link.com,2013-03-22 21:19:00,
2013-03-22 14:35:00,89.4,17.3,29.60,North,0,2.2,-999.0,7,-99.99,,,0.01,Acu-Link.com,2013-03-22 21:35:00,
2013-03-22 14:50:00,89.8,5.0,29.59,NNW,337,2.2,-999.0,4,-99.99,,,0.01,Acu-Link.com,2013-03-22 21:50:00,
2013-03-22 15:05:00,89.2,-1.6,29.59,SE,135,2.2,-999.0,3,-99.99,,,0.01,Acu-Link.com,2013-03-22 22:05:00,
2013-03-22 15:21:00,90.0,-1.0,29.59,South,180,4.2,-999.0,3,-99.99,,,0.01,Acu-Link.com,2013-03-22 22:21:00,
2013-03-22 16:06:00,87.8,28.9,29.57,SSE,157,4.7,-999.0,12,-99.99,,,0.01,Acu-Link.com,2013-03-22 23:06:00,
2013-03-22 16:22:00,87.3,28.5,29.57,West,270,6.3,-999.0,12,-99.99,,,0.01,Acu-Link.com,2013-03-22 23:22:00,
2013-03-22 16:37:00,86.9,26.1,29.56,West,270,9.4,-999.0,11,-99.99,,,0.01,Acu-Link.com,2013-03-22 23:37:00,
2013-03-22 16:52:00,86.0,25.4,29.56,SW,225,5.8,-999.0,11,-99.99,,,0.01,Acu-Link.com,2013-03-22 23:52:00,
2013-03-22 17:07:00,85.3,32.4,29.56,WNW,292,6.8,-999.0,15,-99.99,,,0.01,Acu-Link.com,2013-03-23 00:07:00,
2013-03-22 17:22:00,84.6,36.4,29.55,West,270,10.9,-999.0,18,-99.99,,,0.01,Acu-Link.com,2013-03-23 00:22:00,
2013-03-22 17:37:00,83.3,40.5,29.55,NW,315,9.9,-999.0,22,-99.99,,,0.01,Acu-Link.com,2013-03-23 00:37:00,
2013-03-22 17:52:00,82.6,39.9,29.55,WNW,292,8.9,-999.0,22,-99.99,,,0.01,Acu-Link.com,2013-03-23 00:52:00,
2013-03-22 18:08:00,81.9,39.3,29.56,WNW,292,6.8,-999.0,22,-99.99,,,0.01,Acu-Link.com,2013-03-23 01:08:00,
2013-03-22 18:23:00,79.5,38.4,29.56,NW,315,10.9,-999.0,23,-99.99,,,0.01,Acu-Link.com,2013-03-23 01:23:00,
2013-03-22 18:38:00,78.3,38.5,29.57,WSW,247,7.8,-999.0,24,-99.99,,,0.01,Acu-Link.com,2013-03-23 01:38:00,
2013-03-22 18:53:00,77.4,36.7,29.57,WNW,292,9.9,-999.0,23,-99.99,,,0.01,Acu-Link.com,2013-03-23 01:53:00,
2013-03-22 19:08:00,76.6,38.1,29.57,West,270,8.3,-999.0,25,-99.99,,,0.01,Acu-Link.com,2013-03-23 02:08:00,
2013-03-22 19:23:00,75.7,37.4,29.57,West,270,8.9,-999.0,25,-99.99,,,0.01,Acu-Link.com,2013-03-23 02:23:00,
2013-03-22 19:38:00,75.4,38.1,29.58,NW,315,9.9,-999.0,26,-99.99,,,0.01,Acu-Link.com,2013-03-23 02:38:00,
2013-03-22 19:53:00,75.2,37.9,29.59,SW,225,9.4,-999.0,26,-99.99,,,0.01,Acu-Link.com,2013-03-23 02:53:00,
2013-03-22 20:08:00,74.8,38.6,29.60,North,0,14.0,-999.0,27,-99.99,,,0.01,Acu-Link.com,2013-03-23 03:08:00,
2013-03-22 20:24:00,73.6,41.9,29.61,West,270,14.0,-999.0,32,-99.99,,,0.01,Acu-Link.com,2013-03-23 03:24:00,
2013-03-22 20:39:00,72.5,43.3,29.61,West,270,9.9,-999.0,35,-99.99,,,0.01,Acu-Link.com,2013-03-23 03:39:00,
2013-03-22 20:54:00,71.4,45.1,29.62,West,270,12.5,-999.0,39,-99.99,,,0.01,Acu-Link.com,2013-03-23 03:54:00,
2013-03-22 21:09:00,70.7,45.2,29.63,WNW,292,10.9,-999.0,40,-99.99,,,0.01,Acu-Link.com,2013-03-23 04:09:00,
2013-03-22 21:24:00,70.3,45.5,29.62,NW,315,13.0,-999.0,41,-99.99,,,0.01,Acu-Link.com,2013-03-23 04:24:00,
2013-03-22 21:39:00,70.0,45.2,29.63,WNW,292,15.0,-999.0,41,-99.99,,,0.01,Acu-Link.com,2013-03-23 04:39:00,
2013-03-22 21:54:00,68.7,46.5,29.64,WNW,292,8.9,-999.0,45,-99.99,,,0.01,Acu-Link.com,2013-03-23 04:54:00,
2013-03-22 22:09:00,67.6,46.6,29.64,West,270,10.9,-999.0,47,-99.99,,,0.01,Acu-Link.com,2013-03-23 05:09:00,
2013-03-22 22:24:00,66.9,47.6,29.65,WNW,292,8.3,-999.0,50,-99.99,,,0.01,Acu-Link.com,2013-03-23 05:24:00,
2013-03-22 22:39:00,66.7,46.9,29.65,West,270,10.4,-999.0,49,-99.99,,,0.01,Acu-Link.com,2013-03-23 05:39:00,
2013-03-22 22:54:00,66.6,46.8,29.66,NW,315,13.0,-999.0,49,-99.99,,,0.01,Acu-Link.com,2013-03-23 05:54:00,
2013-03-22 23:09:00,66.4,46.7,29.65,WNW,292,13.0,-999.0,49,-99.99,,,0.01,Acu-Link.com,2013-03-23 06:09:00,
2013-03-22 23:24:00,66.2,46.5,29.66,WNW,292,12.5,-999.0,49,-99.99,,,0.01,Acu-Link.com,2013-03-23 06:24:00,
2013-03-22 23:40:00,66.0,46.3,29.66,WNW,292,12.5,-999.0,49,-99.99,,,0.01,Acu-Link.com,2013-03-23 06:40:00,
2013-03-22 23:55:00,66.4,46.7,29.66,West,270,11.9,-999.0,49,-99.99,,,0.01,Acu-Link.com,2013-03-23 06:55:00,